Time;durP1;ratioP1;P1;durP2;ratioP2;P2;SDS_P1;SDS_P2;PMS_P1;PMS_P2;Temp;Humidity;BMP_temperature;BMP_pressure;BME280_temperature;BME280_humidity;BME280_pressure;Samples;Min_cycle;Max_cycle;Signal;HPM_P1;HPM_P2
2022/07/03 00:01:36;;;;;;;;;;;17.60;66.80;;;;;;5094480;28;20325;-86
2022/07/03 00:04:21;;;;;;;;;;;17.60;66.80;;;;;;5098827;28;19915;-86
2022/07/03 00:07:05;;;;;;;;;;;17.50;66.90;;;;;;5098334;28;19915;-86
2022/07/03 00:09:50;;;;;;;;;;;17.50;66.90;;;;;;5098493;28;19936;-86
2022/07/03 00:12:34;;;;;;;;;;;17.50;67.00;;;;;;5098363;28;19953;-86
2022/07/03 00:15:18;;;;;;;;;;;17.40;67.00;;;;;;5098647;28;19915;-86
2022/07/03 00:18:02;;;;;;;;;;;17.40;67.00;;;;;;5083179;28;19957;-86
2022/07/03 00:20:36;;;;;;;;;;;17.30;67.10;;;;;;5077454;28;19973;-86
2022/07/03 00:23:09;;;;;;;;;;;17.30;67.10;;;;;;5077661;28;20288;-86
2022/07/03 00:25:53;;;;;;;;;;;17.20;67.10;;;;;;5109560;28;19914;-86
2022/07/03 00:28:38;;;;;;;;;;;17.20;67.20;;;;;;5094095;28;20366;-87
2022/07/03 00:31:07;;;;;;;;;;;17.20;67.20;;;;;;5098042;28;19926;-86
2022/07/03 00:33:34;;;;;;;;;;;17.10;67.30;;;;;;5098182;28;19927;-86
2022/07/03 00:36:01;;;;;;;;;;;17.10;67.30;;;;;;5098239;28;19920;-86
2022/07/03 00:38:46;;;;;;;;;;;17.00;67.30;;;;;;5095972;28;20321;-87
2022/07/03 00:41:32;;;;;;;;;;;16.90;67.30;;;;;;5095352;28;19914;-86
2022/07/03 00:44:17;;;;;;;;;;;16.90;67.40;;;;;;5094735;28;20153;-86
2022/07/03 00:47:04;;;;;;;;;;;16.90;67.50;;;;;;5110004;28;19914;-87
2022/07/03 00:49:50;;;;;;;;;;;16.80;67.50;;;;;;5093809;28;19914;-86
2022/07/03 00:52:35;;;;;;;;;;;16.80;67.60;;;;;;5096998;28;19961;-87
2022/07/03 00:55:21;;;;;;;;;;;16.70;67.60;;;;;;5098148;28;19958;-86
2022/07/03 00:58:06;;;;;;;;;;;16.70;67.70;;;;;;5098245;28;19926;-86
2022/07/03 01:00:34;;;;;;;;;;;16.60;67.70;;;;;;5098077;28;19966;-86
2022/07/03 01:03:04;;;;;;;;;;;16.60;67.80;;;;;;5095953;28;19963;-86
2022/07/03 01:05:42;;;;;;;;;;;16.60;67.90;;;;;;5077066;28;20386;-86
2022/07/03 01:08:45;;;;;;;;;;;16.50;67.90;;;;;;5079722;28;19914;-86
2022/07/03 01:11:35;;;;;;;;;;;16.40;68.00;;;;;;5095051;28;19915;-86
2022/07/03 01:14:39;;;;;;;;;;;16.40;68.00;;;;;;5094976;28;20282;-86
2022/07/03 01:17:11;;;;;;;;;;;16.40;68.10;;;;;;5093006;28;20446;-86
2022/07/03 01:19:42;;;;;;;;;;;16.40;68.20;;;;;;5093018;28;19927;-86
2022/07/03 01:22:27;;;;;;;;;;;16.30;68.20;;;;;;5094797;28;19920;-86
2022/07/03 01:25:06;;;;;;;;;;;16.30;68.30;;;;;;5096304;28;19919;-87
2022/07/03 01:27:58;;;;;;;;;;;16.30;68.40;;;;;;5083404;28;19974;-86
2022/07/03 01:30:52;;;;;;;;;;;16.20;68.40;;;;;;5098515;28;19950;-87
2022/07/03 01:33:40;;;;;;;;;;;16.20;68.50;;;;;;5098365;28;20291;-87
2022/07/03 01:36:09;;;;;;;;;;;16.20;68.50;;;;;;5101202;28;19923;-86
2022/07/03 01:38:38;;;;;;;;;;;16.10;68.60;;;;;;5098982;28;19920;-86
2022/07/03 01:41:05;;;;;;;;;;;16.10;68.70;;;;;;5098816;28;19919;-86
2022/07/03 01:43:33;;;;;;;;;;;16.10;68.70;;;;;;5100382;28;19920;-86
2022/07/03 01:46:18;;;;;;;;;;;16.10;68.70;;;;;;5101441;28;19915;-86
2022/07/03 01:49:03;;;;;;;;;;;16.00;68.80;;;;;;5100712;28;19930;-87
2022/07/03 01:51:48;;;;;;;;;;;16.00;68.80;;;;;;5101182;28;19929;-87
2022/07/03 01:54:16;;;;;;;;;;;15.90;68.80;;;;;;5101124;28;19943;-87
2022/07/03 01:56:44;;;;;;;;;;;15.90;68.90;;;;;;5099867;28;19920;-86
2022/07/03 01:59:11;;;;;;;;;;;15.90;68.90;;;;;;5079436;28;19920;-86
2022/07/03 02:01:51;;;;;;;;;;;15.90;69.00;;;;;;5099983;28;19927;-86
2022/07/03 02:04:18;;;;;;;;;;;15.90;69.00;;;;;;5100667;28;19934;-87
2022/07/03 02:07:04;;;;;;;;;;;15.90;69.10;;;;;;5100841;28;19927;-86
2022/07/03 02:09:43;;;;;;;;;;;15.90;69.20;;;;;;5101800;28;19931;-86
2022/07/03 02:12:34;;;;;;;;;;;15.80;69.20;;;;;;5104259;28;19954;-86
2022/07/03 02:15:32;;;;;;;;;;;15.80;69.30;;;;;;5097811;28;19919;-86
2022/07/03 02:18:49;;;;;;;;;;;15.80;69.40;;;;;;5097274;28;20307;-86
2022/07/03 02:21:33;;;;;;;;;;;15.70;69.50;;;;;;5013849;28;19967;-86
2022/07/03 02:24:19;;;;;;;;;;;15.70;69.50;;;;;;5023300;28;19971;-86
2022/07/03 02:27:04;;;;;;;;;;;15.70;69.60;;;;;;5014192;28;19917;-86
2022/07/03 02:29:51;;;;;;;;;;;15.60;69.60;;;;;;5029567;28;20492;-86
2022/07/03 02:32:37;;;;;;;;;;;15.60;69.70;;;;;;5015870;28;20412;-86
2022/07/03 02:35:24;;;;;;;;;;;15.60;69.70;;;;;;5013986;28;19915;-86
2022/07/03 02:38:08;;;;;;;;;;;15.60;69.80;;;;;;5029276;28;19963;-86
2022/07/03 02:40:38;;;;;;;;;;;15.60;69.80;;;;;;5014207;28;19921;-86
2022/07/03 02:43:23;;;;;;;;;;;15.60;69.80;;;;;;5027772;28;20016;-86
2022/07/03 02:49:16;;;;;;;;;;;15.50;69.90;;;;;;5014637;28;19921;-86
2022/07/03 02:52:18;;;;;;;;;;;15.50;70.00;;;;;;5015206;28;20512;-86
2022/07/03 02:55:23;;;;;;;;;;;15.40;70.00;;;;;;5031489;28;19955;-86
2022/07/03 02:58:14;;;;;;;;;;;15.40;70.10;;;;;;5074847;28;19915;-86
2022/07/03 03:01:04;;;;;;;;;;;15.40;70.20;;;;;;5076623;28;19920;-86
2022/07/03 03:04:08;;;;;;;;;;;15.40;70.30;;;;;;5076497;28;20013;-86
2022/07/03 03:06:37;;;;;;;;;;;15.40;70.30;;;;;;5076429;28;19927;-86
2022/07/03 03:09:04;;;;;;;;;;;15.40;70.40;;;;;;5080899;28;19920;-86
2022/07/03 03:11:40;;;;;;;;;;;15.30;70.40;;;;;;5076473;28;19928;-86
2022/07/03 03:14:26;;;;;;;;;;;15.40;70.50;;;;;;5076448;28;19924;-86
2022/07/03 03:17:18;;;;;;;;;;;15.30;70.50;;;;;;5073604;28;20355;-86
2022/07/03 03:20:02;;;;;;;;;;;15.40;70.60;;;;;;5090451;28;19969;-86
2022/07/03 03:23:08;;;;;;;;;;;15.30;70.70;;;;;;5073079;28;19915;-86
2022/07/03 03:25:53;;;;;;;;;;;15.30;70.80;;;;;;5090051;28;20000;-86
2022/07/03 03:28:37;;;;;;;;;;;15.30;70.90;;;;;;5074952;28;19915;-86
2022/07/03 03:31:21;;;;;;;;;;;15.30;70.90;;;;;;5079175;28;19935;-86
2022/07/03 03:34:06;;;;;;;;;;;15.30;71.00;;;;;;5076042;28;20326;-86
2022/07/03 03:36:50;;;;;;;;;;;15.30;71.00;;;;;;5075937;28;19954;-86
2022/07/03 03:39:34;;;;;;;;;;;15.30;71.00;;;;;;5065206;28;20055;-86
2022/07/03 03:42:18;;;;;;;;;;;15.30;71.00;;;;;;5072848;28;19999;-86
2022/07/03 03:45:03;;;;;;;;;;;15.30;71.10;;;;;;5072419;28;20303;-86
2022/07/03 03:47:47;;;;;;;;;;;15.30;71.10;;;;;;5070240;28;19915;-86
2022/07/03 03:50:31;;;;;;;;;;;15.30;71.10;;;;;;5057528;28;19958;-86
2022/07/03 03:53:17;;;;;;;;;;;15.30;71.10;;;;;;5072814;28;19916;-86
2022/07/03 03:56:06;;;;;;;;;;;15.30;71.20;;;;;;5069546;28;19967;-85
2022/07/03 03:58:50;;;;;;;;;;;15.30;71.20;;;;;;5069324;28;19923;-86
2022/07/03 04:01:35;;;;;;;;;;;15.30;71.20;;;;;;5070702;28;19916;-86
2022/07/03 04:04:21;;;;;;;;;;;15.30;71.20;;;;;;5072620;28;19914;-86
2022/07/03 04:07:05;;;;;;;;;;;15.30;71.30;;;;;;5072430;28;19915;-85
2022/07/03 04:09:49;;;;;;;;;;;15.30;71.30;;;;;;5072328;28;20284;-86
2022/07/03 04:12:33;;;;;;;;;;;15.30;71.30;;;;;;5072382;28;19915;-86
2022/07/03 04:15:17;;;;;;;;;;;15.30;71.40;;;;;;5071983;28;20299;-86
2022/07/03 04:18:02;;;;;;;;;;;15.30;71.40;;;;;;5072468;28;19916;-86
2022/07/03 04:20:46;;;;;;;;;;;15.20;71.40;;;;;;5072382;28;20021;-86
2022/07/03 04:23:31;;;;;;;;;;;15.20;71.50;;;;;;5058109;28;19962;-86
2022/07/03 04:26:15;;;;;;;;;;;15.20;71.50;;;;;;5071312;28;19991;-86
2022/07/03 04:28:59;;;;;;;;;;;15.20;71.60;;;;;;5069500;28;19931;-86
2022/07/03 04:31:43;;;;;;;;;;;15.20;71.70;;;;;;5072523;28;19916;-86
2022/07/03 04:34:27;;;;;;;;;;;15.20;71.80;;;;;;5072487;28;19916;-86
2022/07/03 04:37:12;;;;;;;;;;;15.20;71.80;;;;;;5072699;28;19919;-85
2022/07/03 04:39:56;;;;;;;;;;;15.20;71.90;;;;;;5097737;28;20031;-86
2022/07/03 04:42:40;;;;;;;;;;;15.20;72.00;;;;;;5079799;28;19915;-86
2022/07/03 04:45:24;;;;;;;;;;;15.20;72.10;;;;;;5098224;28;19915;-86
2022/07/03 04:48:09;;;;;;;;;;;15.20;72.20;;;;;;5098363;28;19915;-86
2022/07/03 04:50:53;;;;;;;;;;;15.10;72.40;;;;;;5098277;28;19960;-87
2022/07/03 04:53:37;;;;;;;;;;;15.20;72.50;;;;;;5096185;28;19915;-86
2022/07/03 04:56:04;;;;;;;;;;;15.20;72.60;;;;;;5095753;28;19923;-86
2022/07/03 04:58:31;;;;;;;;;;;15.20;72.80;;;;;;5096815;28;19920;-87
2022/07/03 05:00:58;;;;;;;;;;;15.20;72.90;;;;;;5101497;28;20387;-87
2022/07/03 05:03:42;;;;;;;;;;;15.20;73.00;;;;;;5102157;28;19915;-86
2022/07/03 05:06:27;;;;;;;;;;;15.20;73.10;;;;;;5102032;28;19915;-86
2022/07/03 05:09:11;;;;;;;;;;;15.20;73.20;;;;;;5083951;28;19915;-86
2022/07/03 05:11:55;;;;;;;;;;;15.30;73.20;;;;;;5098657;28;19934;-86
2022/07/03 05:14:40;;;;;;;;;;;15.30;73.30;;;;;;5098986;28;19915;-86
2022/07/03 05:17:24;;;;;;;;;;;15.30;73.40;;;;;;5098174;28;19915;-86
2022/07/03 05:20:23;;;;;;;;;;;15.30;73.40;;;;;;5099901;28;19919;-86
2022/07/03 05:22:38;;;;;;;;;;;15.40;73.50;;;;;;5100805;28;20326;-86
2022/07/03 05:25:05;;;;;;;;;;;15.40;73.50;;;;;;5101733;28;19920;-86
2022/07/03 05:27:35;;;;;;;;;;;15.40;73.50;;;;;;5101306;28;19920;-86
2022/07/03 05:30:01;;;;;;;;;;;15.40;73.60;;;;;;5080736;28;19928;-86
2022/07/03 05:32:28;;;;;;;;;;;15.40;73.60;;;;;;5098658;28;19920;-86
2022/07/03 05:34:55;;;;;;;;;;;15.40;73.70;;;;;;5096434;28;19929;-85
2022/07/03 05:37:22;;;;;;;;;;;15.40;73.60;;;;;;5094319;28;19923;-86
2022/07/03 05:39:49;;;;;;;;;;;15.50;73.70;;;;;;5101946;28;19920;-86
2022/07/03 05:42:15;;;;;;;;;;;15.50;73.70;;;;;;5097911;28;20414;-85
2022/07/03 05:44:42;;;;;;;;;;;15.50;73.70;;;;;;5098432;28;19924;-86
2022/07/03 05:47:09;;;;;;;;;;;15.60;73.80;;;;;;5096719;28;19920;-86
2022/07/03 05:49:36;;;;;;;;;;;15.60;73.80;;;;;;5097198;28;19920;-86
2022/07/03 05:52:02;;;;;;;;;;;15.60;73.80;;;;;;5098239;28;19973;-86
2022/07/03 05:54:47;;;;;;;;;;;15.60;73.90;;;;;;5098168;28;20271;-86
2022/07/03 05:57:31;;;;;;;;;;;15.60;73.90;;;;;;5101363;28;20295;-86
2022/07/03 05:59:59;;;;;;;;;;;15.70;74.00;;;;;;5100927;28;19930;-86
2022/07/03 06:02:26;;;;;;;;;;;15.70;74.10;;;;;;5097476;28;20303;-85
2022/07/03 06:04:53;;;;;;;;;;;15.80;74.10;;;;;;5099249;28;19920;-85
2022/07/03 06:07:21;;;;;;;;;;;15.80;74.20;;;;;;5099104;28;19959;-85
2022/07/03 06:09:48;;;;;;;;;;;15.80;74.20;;;;;;5110558;28;19938;-86
2022/07/03 06:12:19;;;;;;;;;;;15.80;74.30;;;;;;5092467;28;20014;-86
2022/07/03 06:14:46;;;;;;;;;;;15.90;74.30;;;;;;5114772;28;19927;-86
2022/07/03 06:17:13;;;;;;;;;;;15.90;74.40;;;;;;5098174;28;19934;-85
2022/07/03 06:19:40;;;;;;;;;;;15.90;74.40;;;;;;5110454;28;19925;-86
2022/07/03 06:22:07;;;;;;;;;;;16.00;74.50;;;;;;5103913;28;19942;-87
2022/07/03 06:24:35;;;;;;;;;;;16.00;74.50;;;;;;5100408;28;20322;-86
2022/07/03 06:27:03;;;;;;;;;;;16.10;74.50;;;;;;5097267;28;20010;-88
2022/07/03 06:29:30;;;;;;;;;;;16.10;74.50;;;;;;5111630;28;19966;-87
2022/07/03 06:31:58;;;;;;;;;;;16.10;74.50;;;;;;5111888;28;20027;-87
2022/07/03 06:34:25;;;;;;;;;;;16.20;74.60;;;;;;5112639;28;19920;-89
2022/07/03 06:37:09;;;;;;;;;;;16.20;74.60;;;;;;5111719;28;19922;-88
2022/07/03 06:39:54;;;;;;;;;;;16.30;74.60;;;;;;5072343;28;20046;-87
2022/07/03 06:42:38;;;;;;;;;;;16.30;74.60;;;;;;5072875;28;20008;-87
2022/07/03 06:45:23;;;;;;;;;;;16.40;74.60;;;;;;5072696;28;20063;-86
2022/07/03 06:48:07;;;;;;;;;;;16.40;74.60;;;;;;5072615;28;19962;-87
2022/07/03 06:50:52;;;;;;;;;;;16.40;74.50;;;;;;5072733;28;20318;-86
2022/07/03 06:53:36;;;;;;;;;;;16.50;74.40;;;;;;5070324;28;20333;-87
2022/07/03 06:56:20;;;;;;;;;;;16.50;74.40;;;;;;5053679;28;20387;-87
2022/07/03 06:58:50;;;;;;;;;;;16.60;74.40;;;;;;5079169;28;19923;-86
2022/07/03 07:01:17;;;;;;;;;;;16.60;74.30;;;;;;5068032;28;19924;-89
2022/07/03 07:03:43;;;;;;;;;;;16.70;74.20;;;;;;5072489;28;19928;-87
2022/07/03 07:06:11;;;;;;;;;;;16.70;74.20;;;;;;5072178;28;19924;-88
2022/07/03 07:08:37;;;;;;;;;;;16.80;74.10;;;;;;5070724;28;20334;-87
2022/07/03 07:11:04;;;;;;;;;;;16.80;74.10;;;;;;5072363;28;19974;-87
2022/07/03 07:13:31;;;;;;;;;;;16.90;74.00;;;;;;5066908;28;20007;-87
2022/07/03 07:15:58;;;;;;;;;;;16.90;73.80;;;;;;5064443;28;19928;-87
2022/07/03 07:18:24;;;;;;;;;;;16.90;73.70;;;;;;5072112;28;19928;-86
2022/07/03 07:21:11;;;;;;;;;;;17.00;73.60;;;;;;5072302;28;19923;-88
2022/07/03 07:23:38;;;;;;;;;;;17.10;73.50;;;;;;5067147;28;20347;-88
2022/07/03 07:26:06;;;;;;;;;;;17.10;73.40;;;;;;5072510;28;19920;-87
2022/07/03 07:28:34;;;;;;;;;;;17.20;73.30;;;;;;5071634;28;19920;-88
2022/07/03 07:31:01;;;;;;;;;;;17.20;73.20;;;;;;5068225;28;19927;-87
2022/07/03 07:33:28;;;;;;;;;;;17.30;73.10;;;;;;5071997;28;19931;-87
2022/07/03 07:35:55;;;;;;;;;;;17.30;73.00;;;;;;5071952;28;19927;-86
2022/07/03 07:38:40;;;;;;;;;;;17.40;72.90;;;;;;5089366;28;19926;-87
2022/07/03 07:41:07;;;;;;;;;;;17.40;72.70;;;;;;5111616;28;19926;-86
2022/07/03 07:43:34;;;;;;;;;;;17.50;72.60;;;;;;5112182;28;20318;-87
2022/07/03 07:46:01;;;;;;;;;;;17.50;72.50;;;;;;5250906;22;22105;-89
2022/07/03 07:48:45;;;;;;;;;;;17.60;72.40;;;;;;5007987;28;19921;-89
2022/07/03 07:51:12;;;;;;;;;;;17.70;72.30;;;;;;5018932;28;19937;-87
2022/07/03 07:53:39;;;;;;;;;;;17.80;72.30;;;;;;5012233;28;20373;-88
2022/07/03 07:56:12;;;;;;;;;;;17.80;72.10;;;;;;5006288;28;19948;-91
2022/07/03 07:58:56;;;;;;;;;;;17.90;72.00;;;;;;5010307;28;19932;-91
2022/07/03 08:07:11;;;;;;;;;;;18.00;71.50;;;;;;5008770;28;19963;-92
2022/07/03 08:09:38;;;;;;;;;;;18.10;71.40;;;;;;5007717;28;19921;-90
2022/07/03 08:12:05;;;;;;;;;;;18.20;71.20;;;;;;5002223;28;19944;-89
2022/07/03 08:14:32;;;;;;;;;;;18.30;71.10;;;;;;4999297;28;19926;-89
2022/07/03 08:17:17;;;;;;;;;;;18.30;71.00;;;;;;5004772;28;20293;-90
2022/07/03 08:19:43;;;;;;;;;;;18.40;70.80;;;;;;4996450;28;19975;-91
2022/07/03 08:22:11;;;;;;;;;;;18.40;70.70;;;;;;5009579;28;19984;-92
2022/07/03 08:24:38;;;;;;;;;;;18.50;70.60;;;;;;5004084;28;20521;-90
2022/07/03 08:27:10;;;;;;;;;;;18.60;70.50;;;;;;5003948;28;19975;-90
2022/07/03 08:29:36;;;;;;;;;;;18.60;70.30;;;;;;5002818;28;19968;-90
2022/07/03 08:32:03;;;;;;;;;;;18.70;70.20;;;;;;4996607;28;20415;-90
2022/07/03 08:34:30;;;;;;;;;;;18.70;70.00;;;;;;4993940;28;19956;-90
2022/07/03 08:36:57;;;;;;;;;;;18.80;69.80;;;;;;4995860;28;19929;-89
2022/07/03 08:39:24;;;;;;;;;;;18.90;69.70;;;;;;5009787;28;19925;-89
2022/07/03 08:41:51;;;;;;;;;;;18.90;69.60;;;;;;5004502;28;20348;-89
2022/07/03 08:44:19;;;;;;;;;;;19.00;69.40;;;;;;5005148;28;20436;-92
2022/07/03 08:46:48;;;;;;;;;;;19.00;69.20;;;;;;4996978;28;19921;-87
2022/07/03 08:49:16;;;;;;;;;;;19.10;69.10;;;;;;4995482;28;19933;-89
2022/07/03 08:51:44;;;;;;;;;;;19.20;68.90;;;;;;4998447;28;19922;-89
2022/07/03 08:54:11;;;;;;;;;;;19.30;68.70;;;;;;4997919;28;19922;-89
2022/07/03 08:56:56;;;;;;;;;;;19.30;68.50;;;;;;4997399;28;19917;-89
2022/07/03 08:59:41;;;;;;;;;;;19.40;68.30;;;;;;4997027;28;20389;-89
2022/07/03 09:02:26;;;;;;;;;;;19.40;68.10;;;;;;4997177;28;19917;-89
2022/07/03 09:05:11;;;;;;;;;;;19.50;67.90;;;;;;4996544;28;19917;-90
2022/07/03 09:07:56;;;;;;;;;;;19.60;67.70;;;;;;5005756;28;19917;-90
2022/07/03 09:10:41;;;;;;;;;;;19.70;67.50;;;;;;5005615;28;20408;-89
2022/07/03 09:13:25;;;;;;;;;;;19.80;67.20;;;;;;5007905;28;19916;-88
2022/07/03 09:15:52;;;;;;;;;;;19.90;67.00;;;;;;5008842;28;19925;-90
2022/07/03 09:18:35;;;;;;;;;;;19.90;66.80;;;;;;4997464;28;19921;-89
2022/07/03 09:21:02;;;;;;;;;;;20.10;66.60;;;;;;5008094;28;19929;-90
2022/07/03 09:23:35;;;;;;;;;;;20.10;66.20;;;;;;5006135;28;20000;-92
2022/07/03 09:26:02;;;;;;;;;;;20.20;66.00;;;;;;5007047;28;20297;-90
2022/07/03 09:28:51;;;;;;;;;;;20.30;65.80;;;;;;5014687;28;19922;-90
2022/07/03 09:31:19;;;;;;;;;;;20.40;65.50;;;;;;4993379;28;19929;-90
2022/07/03 09:33:56;;;;;;;;;;;20.40;64.90;;;;;;5010822;28;20012;-89
2022/07/03 09:36:44;;;;;;;;;;;20.40;64.70;;;;;;5001450;28;19921;-92
2022/07/03 09:39:10;;;;;;;;;;;20.50;64.60;;;;;;5006719;28;19921;-90
2022/07/03 09:41:58;;;;;;;;;;;20.60;64.40;;;;;;5001363;28;19937;-90
2022/07/03 09:44:41;;;;;;;;;;;20.60;64.30;;;;;;5002314;28;19925;-89
2022/07/03 09:47:08;;;;;;;;;;;20.70;64.10;;;;;;5010974;28;19921;-89
2022/07/03 09:49:56;;;;;;;;;;;20.80;63.90;;;;;;4996450;28;19929;-90
2022/07/03 09:52:31;;;;;;;;;;;20.80;63.80;;;;;;4998041;28;19928;-90
2022/07/03 09:55:01;;;;;;;;;;;20.90;63.60;;;;;;4994349;28;19921;-91
2022/07/03 09:57:57;;;;;;;;;;;20.90;63.50;;;;;;5010600;28;20376;-90
2022/07/03 10:00:42;;;;;;;;;;;21.00;63.40;;;;;;5008650;28;19974;-89
2022/07/03 10:03:26;;;;;;;;;;;21.10;63.20;;;;;;4997284;28;20412;-90
2022/07/03 10:06:02;;;;;;;;;;;21.20;63.00;;;;;;5012625;28;19936;-91
2022/07/03 10:08:29;;;;;;;;;;;21.30;62.90;;;;;;4998398;28;19944;-90
2022/07/03 10:10:56;;;;;;;;;;;21.40;62.70;;;;;;5000614;28;19957;-90
2022/07/03 10:13:23;;;;;;;;;;;21.50;62.60;;;;;;5004601;28;19922;-91
2022/07/03 10:15:50;;;;;;;;;;;21.60;62.40;;;;;;4996336;28;20270;-89
2022/07/03 10:18:39;;;;;;;;;;;21.70;62.20;;;;;;5012891;28;20119;-93
2022/07/03 10:21:23;;;;;;;;;;;21.90;61.80;;;;;;4995800;28;19916;-91
2022/07/03 10:24:08;;;;;;;;;;;21.90;61.40;;;;;;5011783;28;20000;-90
2022/07/03 10:26:53;;;;;;;;;;;22.00;61.20;;;;;;5024011;28;19955;-91
2022/07/03 10:29:23;;;;;;;;;;;22.10;61.10;;;;;;5005046;28;19925;-91
2022/07/03 10:31:55;;;;;;;;;;;22.10;60.80;;;;;;4998774;28;19921;-90
2022/07/03 10:34:41;;;;;;;;;;;22.10;60.70;;;;;;5010810;28;20276;-90
2022/07/03 10:37:28;;;;;;;;;;;22.20;60.50;;;;;;5009674;28;19916;-89
2022/07/03 10:46:41;;;;;;;;;;;22.40;59.80;;;;;;4997281;28;19916;-90
2022/07/03 10:49:10;;;;;;;;;;;22.40;59.50;;;;;;4994888;28;19926;-91
2022/07/03 10:51:49;;;;;;;;;;;22.50;59.30;;;;;;5001281;28;19922;-90
2022/07/03 10:54:17;;;;;;;;;;;22.50;58.90;;;;;;5002145;28;20322;-91
2022/07/03 10:57:03;;;;;;;;;;;22.50;58.70;;;;;;5005405;28;19928;-90
2022/07/03 10:59:55;;;;;;;;;;;22.50;58.60;;;;;;5008967;28;19968;-90
2022/07/03 11:02:32;;;;;;;;;;;22.40;58.50;;;;;;5002517;28;20341;-90
2022/07/03 11:04:59;;;;;;;;;;;22.40;58.40;;;;;;4997756;28;19929;-90
2022/07/03 11:07:27;;;;;;;;;;;22.40;58.50;;;;;;5011577;28;19921;-90
2022/07/03 11:10:10;;;;;;;;;;;22.40;58.60;;;;;;4994655;28;19992;-89
2022/07/03 11:13:05;;;;;;;;;;;22.40;58.60;;;;;;5010421;28;20388;-90
2022/07/03 11:15:50;;;;;;;;;;;22.40;58.70;;;;;;4994853;28;19917;-89
2022/07/03 11:18:34;;;;;;;;;;;22.40;58.60;;;;;;4998936;28;19993;-91
2022/07/03 11:21:21;;;;;;;;;;;22.40;58.60;;;;;;4998761;28;20338;-88
2022/07/03 11:24:14;;;;;;;;;;;22.40;58.60;;;;;;5004905;28;20384;-90
2022/07/03 11:27:12;;;;;;;;;;;22.30;58.60;;;;;;5001733;28;20392;-88
2022/07/03 11:29:57;;;;;;;;;;;22.30;58.60;;;;;;5004398;28;20376;-89
2022/07/03 11:32:49;;;;;;;;;;;22.20;58.60;;;;;;5003570;28;20381;-89
2022/07/03 11:35:48;;;;;;;;;;;22.20;58.70;;;;;;4998525;28;20293;-89
2022/07/03 11:38:32;;;;;;;;;;;22.20;58.80;;;;;;4998179;28;19960;-89
2022/07/03 11:41:16;;;;;;;;;;;22.10;58.80;;;;;;5001364;28;19921;-88
2022/07/03 11:44:02;;;;;;;;;;;22.00;58.90;;;;;;5006937;28;19926;-88
2022/07/03 11:46:47;;;;;;;;;;;22.00;59.00;;;;;;5009068;28;19920;-88
2022/07/03 11:49:17;;;;;;;;;;;22.00;59.00;;;;;;4996044;28;19929;-89
2022/07/03 11:52:03;;;;;;;;;;;22.00;58.90;;;;;;5012949;28;19979;-88
2022/07/03 11:54:31;;;;;;;;;;;22.00;58.80;;;;;;4999805;28;19921;-89
2022/07/03 11:56:59;;;;;;;;;;;22.10;58.80;;;;;;5002218;28;20048;-89
2022/07/03 11:59:27;;;;;;;;;;;22.00;58.60;;;;;;5005262;28;19922;-88
2022/07/03 12:02:12;;;;;;;;;;;22.00;58.60;;;;;;5000327;28;19956;-90
2022/07/03 12:04:56;;;;;;;;;;;22.00;58.60;;;;;;5004568;28;19916;-89
2022/07/03 12:07:40;;;;;;;;;;;22.00;58.60;;;;;;5001479;28;19916;-89
2022/07/03 12:10:07;;;;;;;;;;;22.10;58.60;;;;;;5008609;28;19921;-89
2022/07/03 12:12:36;;;;;;;;;;;22.10;58.60;;;;;;4997704;28;19937;-89
2022/07/03 12:15:03;;;;;;;;;;;22.10;58.60;;;;;;4998380;28;19928;-89
2022/07/03 12:17:47;;;;;;;;;;;22.10;58.60;;;;;;4997890;28;19917;-89
2022/07/03 12:20:14;;;;;;;;;;;22.20;58.60;;;;;;4997316;28;19925;-90
2022/07/03 12:22:44;;;;;;;;;;;22.20;58.40;;;;;;4995051;28;19922;-89
2022/07/03 12:25:12;;;;;;;;;;;22.30;58.30;;;;;;5011212;28;19967;-89
2022/07/03 12:27:56;;;;;;;;;;;22.30;58.30;;;;;;4993099;28;19917;-88
2022/07/03 12:30:40;;;;;;;;;;;22.40;58.20;;;;;;4993243;28;19922;-89
2022/07/03 12:33:07;;;;;;;;;;;22.50;58.00;;;;;;5004305;28;19921;-89
2022/07/03 12:35:34;;;;;;;;;;;22.60;57.80;;;;;;5008720;28;19930;-89
2022/07/03 12:38:01;;;;;;;;;;;22.60;57.70;;;;;;5004932;28;19926;-89
2022/07/03 12:40:28;;;;;;;;;;;22.80;57.60;;;;;;4993708;28;19921;-89
2022/07/03 12:42:55;;;;;;;;;;;22.80;57.40;;;;;;4998366;28;19926;-89
2022/07/03 12:45:23;;;;;;;;;;;22.90;57.20;;;;;;5009603;28;19928;-89
2022/07/03 12:47:58;;;;;;;;;;;23.00;56.90;;;;;;5006089;28;20396;-90
2022/07/03 12:50:25;;;;;;;;;;;23.10;56.70;;;;;;5004784;28;19926;-89
2022/07/03 12:52:57;;;;;;;;;;;23.20;56.50;;;;;;4996596;28;20008;-90
2022/07/03 12:55:27;;;;;;;;;;;23.40;56.30;;;;;;4994281;28;19922;-90
2022/07/03 13:00:59;;;;;;;;;;;23.50;55.60;;;;;;5008897;28;20017;-90
2022/07/03 13:03:27;;;;;;;;;;;23.60;55.20;;;;;;5011409;28;19928;-90
2022/07/03 13:06:12;;;;;;;;;;;23.70;55.00;;;;;;5005736;28;19976;-91
2022/07/03 13:08:48;;;;;;;;;;;23.80;54.80;;;;;;5005705;28;19921;-92
2022/07/03 13:11:24;;;;;;;;;;;23.90;54.70;;;;;;5010147;28;19936;-91
2022/07/03 13:13:51;;;;;;;;;;;23.90;54.50;;;;;;5006303;28;20377;-90
2022/07/03 13:16:28;;;;;;;;;;;24.00;54.40;;;;;;4994432;28;19933;-89
2022/07/03 13:18:59;;;;;;;;;;;24.00;54.20;;;;;;4992565;28;20290;-89
2022/07/03 13:21:26;;;;;;;;;;;24.10;53.80;;;;;;5008602;28;19921;-89
2022/07/03 13:23:52;;;;;;;;;;;24.20;53.60;;;;;;5004085;28;19921;-91
2022/07/03 13:26:20;;;;;;;;;;;24.20;53.50;;;;;;5006178;28;19969;-91
2022/07/03 13:28:46;;;;;;;;;;;24.30;53.20;;;;;;5012642;28;19926;-91
2022/07/03 13:31:13;;;;;;;;;;;24.30;53.00;;;;;;5012518;28;19925;-90
2022/07/03 13:33:40;;;;;;;;;;;24.30;52.70;;;;;;5016840;28;19949;-90
2022/07/03 13:36:07;;;;;;;;;;;24.30;52.70;;;;;;5001919;28;19921;-90
2022/07/03 13:38:34;;;;;;;;;;;24.40;52.70;;;;;;5009031;28;20499;-90
2022/07/03 13:41:01;;;;;;;;;;;24.40;52.60;;;;;;5019475;28;19937;-92
2022/07/03 13:43:27;;;;;;;;;;;24.40;52.50;;;;;;5007171;28;19928;-92
2022/07/03 13:45:54;;;;;;;;;;;24.40;52.40;;;;;;5011137;28;19929;-90
2022/07/03 13:48:21;;;;;;;;;;;24.40;52.20;;;;;;5004596;28;19921;-90
2022/07/03 13:50:48;;;;;;;;;;;24.40;52.20;;;;;;5009570;28;19925;-91
2022/07/03 13:53:15;;;;;;;;;;;24.40;52.10;;;;;;5011652;28;19983;-90
2022/07/03 13:55:41;;;;;;;;;;;24.40;52.00;;;;;;5010824;28;19921;-89
2022/07/03 13:58:08;;;;;;;;;;;24.40;52.00;;;;;;5012872;28;19925;-92
2022/07/03 14:00:35;;;;;;;;;;;24.40;51.90;;;;;;5009732;28;19921;-91
2022/07/03 14:03:02;;;;;;;;;;;24.40;51.80;;;;;;5008657;28;19968;-90
2022/07/03 14:05:29;;;;;;;;;;;24.50;51.80;;;;;;5008464;28;19947;-91
2022/07/03 14:07:56;;;;;;;;;;;24.50;51.80;;;;;;5007596;28;19925;-90
2022/07/03 14:10:24;;;;;;;;;;;24.50;51.60;;;;;;4995713;28;19925;-91
2022/07/03 14:12:51;;;;;;;;;;;24.50;51.30;;;;;;5011657;28;19921;-91
2022/07/03 14:15:18;;;;;;;;;;;24.50;51.20;;;;;;5000446;28;19926;-90
2022/07/03 14:17:45;;;;;;;;;;;24.50;51.20;;;;;;4998609;28;19921;-90
2022/07/03 14:20:12;;;;;;;;;;;24.50;51.20;;;;;;4997875;28;19921;-90
2022/07/03 14:22:39;;;;;;;;;;;24.50;51.30;;;;;;4998183;28;19922;-90
2022/07/03 14:25:07;;;;;;;;;;;24.50;51.30;;;;;;5014058;28;19929;-91
2022/07/03 14:33:04;;;;;;;;;;;24.50;51.10;;;;;;5003345;28;19980;-91
2022/07/03 14:35:31;;;;;;;;;;;24.50;51.10;;;;;;4999360;28;19976;-90
2022/07/03 14:37:58;;;;;;;;;;;24.60;51.00;;;;;;5009400;28;19921;-90
2022/07/03 14:40:25;;;;;;;;;;;24.60;50.90;;;;;;5010823;28;20297;-90
2022/07/03 14:42:52;;;;;;;;;;;24.60;50.90;;;;;;5011197;28;20305;-90
2022/07/03 14:45:19;;;;;;;;;;;24.60;50.80;;;;;;5006717;28;19999;-89
2022/07/03 14:47:46;;;;;;;;;;;24.60;50.80;;;;;;5003657;28;19921;-90
2022/07/03 14:50:12;;;;;;;;;;;24.70;50.70;;;;;;5002562;28;19922;-91
2022/07/03 14:52:39;;;;;;;;;;;24.70;50.50;;;;;;5011333;28;19922;-91
2022/07/03 14:55:06;;;;;;;;;;;24.70;50.40;;;;;;5009551;28;19921;-89
2022/07/03 14:57:42;;;;;;;;;;;24.70;50.40;;;;;;5001819;28;19980;-91
2022/07/03 15:00:13;;;;;;;;;;;24.70;50.30;;;;;;4999381;28;19961;-90
2022/07/03 15:02:59;;;;;;;;;;;24.70;50.30;;;;;;5016089;28;20347;-90
2022/07/03 15:05:28;;;;;;;;;;;24.70;50.30;;;;;;5002678;28;19925;-90
2022/07/03 15:07:57;;;;;;;;;;;24.70;50.20;;;;;;5008795;28;20294;-91
2022/07/03 15:10:24;;;;;;;;;;;24.70;50.10;;;;;;4993841;28;19928;-90
2022/07/03 15:12:52;;;;;;;;;;;24.70;50.00;;;;;;4993778;28;19928;-90
2022/07/03 15:15:21;;;;;;;;;;;24.70;50.00;;;;;;5009987;28;19929;-90
2022/07/03 15:17:49;;;;;;;;;;;24.70;50.10;;;;;;5004462;28;20012;-90
2022/07/03 15:20:16;;;;;;;;;;;24.70;50.00;;;;;;4999739;28;19928;-91
2022/07/03 15:22:44;;;;;;;;;;;24.70;50.00;;;;;;5010335;28;19932;-91
2022/07/03 15:25:11;;;;;;;;;;;24.70;50.00;;;;;;5008974;28;19956;-90
2022/07/03 15:27:39;;;;;;;;;;;24.70;49.90;;;;;;4999182;28;20329;-91
2022/07/03 15:30:08;;;;;;;;;;;24.70;49.80;;;;;;5016890;28;19921;-90
2022/07/03 15:32:35;;;;;;;;;;;24.60;49.80;;;;;;4998324;28;19930;-89